Time;durP1;ratioP1;P1;durP2;ratioP2;P2;SDS_P1;SDS_P2;PMS_P1;PMS_P2;Temp;Humidity;BMP_temperature;BMP_pressure;BME280_temperature;BME280_humidity;BME280_pressure;Samples;Min_cycle;Max_cycle;Signal;HPM_P1;HPM_P2
2022/11/25 00:01:23;;;;;;;2.50;1.90;;;;;;;;;;5051974;28;20206;-79
2022/11/25 00:03:52;;;;;;;1.57;1.43;;;;;;;;;;5052040;28;20651;-78
2022/11/25 00:06:20;;;;;;;1.93;1.73;;;;;;;;;;5066075;28;20202;-79
2022/11/25 00:08:49;;;;;;;1.60;1.50;;;;;;;;;;5051343;28;20202;-79
2022/11/25 00:11:17;;;;;;;1.83;1.73;;;;;;;;;;5065972;28;20300;-79
2022/11/25 00:13:45;;;;;;;1.40;1.30;;;;;;;;;;5052335;28;20202;-79
2022/11/25 00:16:13;;;;;;;1.77;1.50;;;;;;;;;;5051733;28;20213;-80
2022/11/25 00:18:44;;;;;;;1.70;1.60;;;;;;;;;;5052109;28;20206;-78
2022/11/25 00:21:12;;;;;;;1.30;1.30;;;;;;;;;;5051625;28;20205;-79
2022/11/25 00:23:39;;;;;;;2.37;1.77;;;;;;;;;;5051625;28;20228;-78
2022/11/25 00:26:08;;;;;;;1.40;1.30;;;;;;;;;;5051474;28;20202;-79
2022/11/25 00:28:36;;;;;;;1.50;1.40;;;;;;;;;;5065483;28;20197;-78
2022/11/25 00:31:08;;;;;;;1.70;1.33;;;;;;;;;;5051418;28;20206;-78
2022/11/25 00:33:34;;;;;;;1.73;1.40;;;;;;;;;;5051724;28;20229;-79
2022/11/25 00:36:03;;;;;;;1.20;1.10;;;;;;;;;;5051160;28;20201;-78
2022/11/25 00:38:30;;;;;;;1.50;1.40;;;;;;;;;;5063117;28;20209;-79
2022/11/25 00:46:21;;;;;;;1.40;1.30;;;;;;;;;;5050820;28;20217;-79
2022/11/25 00:48:48;;;;;;;1.00;1.00;;;;;;;;;;5051476;28;20213;-78
2022/11/25 00:51:17;;;;;;;1.20;1.20;;;;;;;;;;5050955;28;20205;-80
2022/11/25 00:53:43;;;;;;;1.23;1.13;;;;;;;;;;5051308;28;20202;-80
2022/11/25 00:56:13;;;;;;;1.47;1.37;;;;;;;;;;5050942;28;20197;-79
2022/11/25 00:58:40;;;;;;;1.60;1.50;;;;;;;;;;5051191;28;20673;-79
2022/11/25 01:01:07;;;;;;;1.30;1.30;;;;;;;;;;5050886;28;20209;-79
2022/11/25 01:03:35;;;;;;;2.93;1.40;;;;;;;;;;5051113;28;20670;-79
2022/11/25 01:06:02;;;;;;;1.37;1.30;;;;;;;;;;5051203;28;20210;-79
2022/11/25 01:08:31;;;;;;;1.13;1.13;;;;;;;;;;5064122;28;20201;-78
2022/11/25 01:10:59;;;;;;;2.30;1.53;;;;;;;;;;5051014;28;20608;-79
2022/11/25 01:13:25;;;;;;;1.00;1.00;;;;;;;;;;5064424;28;20285;-79
2022/11/25 01:15:52;;;;;;;1.50;1.40;;;;;;;;;;5050562;28;20588;-79
2022/11/25 01:18:19;;;;;;;1.40;1.30;;;;;;;;;;5054444;28;20220;-79
2022/11/25 01:20:46;;;;;;;1.77;1.60;;;;;;;;;;5060379;28;20205;-79
2022/11/25 01:23:12;;;;;;;2.37;1.40;;;;;;;;;;5050833;28;20232;-79
2022/11/25 01:25:41;;;;;;;1.50;1.40;;;;;;;;;;5050836;28;20209;-79
2022/11/25 01:28:07;;;;;;;1.57;1.47;;;;;;;;;;5050359;28;20205;-79
2022/11/25 01:30:34;;;;;;;1.73;1.60;;;;;;;;;;5050408;28;20705;-79
2022/11/25 01:33:01;;;;;;;1.40;1.30;;;;;;;;;;5051135;28;20230;-79
2022/11/25 01:35:28;;;;;;;1.27;1.23;;;;;;;;;;5054991;28;20204;-79
2022/11/25 01:37:54;;;;;;;2.67;1.30;;;;;;;;;;5066646;28;20246;-79
2022/11/25 01:40:21;;;;;;;1.10;1.10;;;;;;;;;;5057190;28;20217;-79
2022/11/25 01:42:49;;;;;;;1.30;1.27;;;;;;;;;;5063856;28;20220;-80
2022/11/25 01:45:33;;;;;;;1.97;1.57;;;;;;;;;;5071181;28;20200;-79
2022/11/25 01:48:03;;;;;;;1.60;1.50;;;;;;;;;;5050407;28;20201;-79
2022/11/25 01:50:32;;;;;;;1.40;1.23;;;;;;;;;;5063045;28;20208;-79
2022/11/25 01:52:59;;;;;;;1.60;1.50;;;;;;;;;;5051122;28;20209;-80
2022/11/25 01:55:28;;;;;;;1.30;1.20;;;;;;;;;;5050128;28;20677;-79
2022/11/25 01:57:59;;;;;;;1.60;1.50;;;;;;;;;;5050350;28;20683;-79
2022/11/25 02:00:26;;;;;;;1.90;1.40;;;;;;;;;;5050209;28;20205;-79
2022/11/25 02:02:55;;;;;;;1.20;1.20;;;;;;;;;;5049998;28;20233;-79
2022/11/25 02:05:24;;;;;;;1.40;1.30;;;;;;;;;;5050441;28;20206;-79
2022/11/25 02:07:53;;;;;;;1.40;1.30;;;;;;;;;;5050077;28;20669;-79
2022/11/25 02:10:24;;;;;;;1.53;1.43;;;;;;;;;;5050115;28;20606;-80
2022/11/25 02:12:51;;;;;;;1.27;1.23;;;;;;;;;;5050151;28;20210;-79
2022/11/25 02:15:20;;;;;;;3.03;1.60;;;;;;;;;;5050475;28;20206;-80
2022/11/25 02:17:46;;;;;;;1.90;1.67;;;;;;;;;;5050399;28;20202;-80
2022/11/25 02:20:15;;;;;;;1.40;1.30;;;;;;;;;;5063601;28;20198;-79
2022/11/25 02:22:50;;;;;;;1.40;1.40;;;;;;;;;;5050129;28;20312;-79
2022/11/25 02:25:20;;;;;;;1.30;1.30;;;;;;;;;;5049885;28;20236;-80
2022/11/25 02:27:50;;;;;;;1.67;1.40;;;;;;;;;;5050314;28;20208;-80
2022/11/25 02:30:17;;;;;;;1.70;1.60;;;;;;;;;;5050064;28;20202;-80
2022/11/25 02:32:44;;;;;;;1.17;1.17;;;;;;;;;;5051954;28;20712;-81
2022/11/25 02:35:28;;;;;;;1.57;1.47;;;;;;;;;;5067828;28;20235;-79
2022/11/25 02:37:58;;;;;;;1.23;1.17;;;;;;;;;;5065222;28;20197;-80
2022/11/25 02:40:26;;;;;;;1.97;1.77;;;;;;;;;;5059770;28;20259;-79
2022/11/25 02:42:53;;;;;;;1.87;1.70;;;;;;;;;;5053559;28;20221;-79
2022/11/25 02:45:23;;;;;;;1.10;1.10;;;;;;;;;;5053488;28;20202;-80
2022/11/25 02:47:50;;;;;;;1.57;1.40;;;;;;;;;;5055392;28;20216;-80
2022/11/25 02:50:17;;;;;;;1.50;1.40;;;;;;;;;;5064605;28;20201;-79
2022/11/25 02:52:44;;;;;;;1.43;1.33;;;;;;;;;;5056553;28;20641;-79
2022/11/25 02:55:10;;;;;;;3.23;1.70;;;;;;;;;;5073187;28;20250;-79
2022/11/25 02:57:38;;;;;;;1.47;1.37;;;;;;;;;;5057737;28;20209;-79
2022/11/25 03:00:07;;;;;;;1.27;1.20;;;;;;;;;;5053161;28;20659;-79
2022/11/25 03:02:34;;;;;;;1.33;1.23;;;;;;;;;;5067367;28;20274;-79
2022/11/25 03:05:00;;;;;;;1.90;1.40;;;;;;;;;;5053231;28;20224;-79
2022/11/25 03:07:27;;;;;;;1.23;1.23;;;;;;;;;;5053104;28;20202;-79
2022/11/25 03:09:54;;;;;;;1.40;1.30;;;;;;;;;;5052852;28;20677;-81
2022/11/25 03:12:21;;;;;;;2.93;1.37;;;;;;;;;;5052986;28;20206;-80
2022/11/25 03:14:49;;;;;;;1.60;1.50;;;;;;;;;;5053072;28;20324;-79
2022/11/25 03:17:16;;;;;;;1.00;1.00;;;;;;;;;;5062824;28;20204;-80
2022/11/25 03:19:43;;;;;;;1.40;1.30;;;;;;;;;;5057725;28;20209;-79
2022/11/25 03:22:09;;;;;;;1.43;1.27;;;;;;;;;;5052998;28;20205;-79
2022/11/25 03:24:36;;;;;;;2.37;1.73;;;;;;;;;;5066245;28;20652;-79
2022/11/25 03:27:03;;;;;;;1.60;1.50;;;;;;;;;;5055005;28;20197;-79
2022/11/25 03:29:30;;;;;;;2.87;1.60;;;;;;;;;;5052203;28;20204;-79
2022/11/25 03:31:58;;;;;;;1.67;1.57;;;;;;;;;;5061298;28;20592;-79
2022/11/25 03:34:25;;;;;;;2.63;1.73;;;;;;;;;;5072264;28;20250;-80
2022/11/25 03:36:51;;;;;;;1.47;1.37;;;;;;;;;;5058371;28;20209;-80
2022/11/25 03:39:18;;;;;;;2.97;1.50;;;;;;;;;;5066602;28;20194;-80
2022/11/25 03:41:45;;;;;;;1.33;1.23;;;;;;;;;;5062980;28;21098;-79
2022/11/25 03:44:12;;;;;;;1.60;1.50;;;;;;;;;;5055494;28;20241;-78
2022/11/25 03:46:38;;;;;;;1.23;1.20;;;;;;;;;;5054263;28;21002;-77
2022/11/25 03:49:06;;;;;;;1.30;1.20;;;;;;;;;;5071549;28;20197;-77
2022/11/25 03:51:33;;;;;;;4.73;1.20;;;;;;;;;;5053672;28;20205;-77
2022/11/25 03:54:00;;;;;;;1.37;1.27;;;;;;;;;;5067381;28;20201;-77
2022/11/25 03:56:27;;;;;;;1.50;1.40;;;;;;;;;;5052856;28;20205;-77
2022/11/25 03:58:53;;;;;;;1.40;1.30;;;;;;;;;;5052696;28;20206;-78
2022/11/25 04:01:20;;;;;;;1.97;1.50;;;;;;;;;;5051286;28;20205;-78
2022/11/25 04:03:47;;;;;;;1.73;1.33;;;;;;;;;;5052230;28;20238;-77
2022/11/25 04:06:18;;;;;;;1.93;1.40;;;;;;;;;;5065785;28;20325;-80
2022/11/25 04:08:45;;;;;;;2.40;1.40;;;;;;;;;;5061527;28;20209;-79
2022/11/25 04:11:12;;;;;;;1.73;1.63;;;;;;;;;;5062045;28;20212;-80
2022/11/25 04:13:38;;;;;;;1.47;1.37;;;;;;;;;;5051339;28;20202;-80
2022/11/25 04:16:05;;;;;;;2.00;1.87;;;;;;;;;;5051625;28;20208;-79
2022/11/25 04:18:31;;;;;;;2.47;1.50;;;;;;;;;;5053887;28;20208;-80
2022/11/25 04:20:58;;;;;;;2.07;1.20;;;;;;;;;;5051132;28;20209;-80
2022/11/25 04:23:26;;;;;;;1.70;1.60;;;;;;;;;;5051393;28;20236;-80
2022/11/25 04:25:53;;;;;;;2.63;1.93;;;;;;;;;;5055766;28;20592;-80
2022/11/25 04:28:20;;;;;;;1.50;1.40;;;;;;;;;;5059595;28;20202;-80
2022/11/25 04:30:46;;;;;;;3.60;1.50;;;;;;;;;;5065026;28;20201;-80
2022/11/25 04:33:13;;;;;;;1.57;1.47;;;;;;;;;;5061079;28;20225;-80
2022/11/25 04:35:40;;;;;;;1.53;1.43;;;;;;;;;;5051009;28;20638;-80
2022/11/25 04:38:07;;;;;;;2.37;1.50;;;;;;;;;;5060550;28;20220;-79
2022/11/25 04:40:35;;;;;;;1.80;1.60;;;;;;;;;;5064443;28;20201;-79
2022/11/25 04:43:02;;;;;;;1.33;1.23;;;;;;;;;;5061760;28;20224;-80
2022/11/25 04:45:28;;;;;;;1.60;1.50;;;;;;;;;;5062564;28;20194;-80
2022/11/25 04:47:55;;;;;;;1.33;1.30;;;;;;;;;;5065835;28;20631;-79
2022/11/25 04:50:23;;;;;;;1.37;1.27;;;;;;;;;;5055062;28;20210;-81
2022/11/25 04:52:50;;;;;;;1.30;1.20;;;;;;;;;;5061588;28;20198;-80
2022/11/25 04:55:17;;;;;;;1.47;1.37;;;;;;;;;;5053732;28;20194;-80
2022/11/25 04:57:45;;;;;;;1.53;1.43;;;;;;;;;;5062520;28;20695;-80
2022/11/25 05:00:12;;;;;;;1.30;1.20;;;;;;;;;;5051485;28;20664;-80
2022/11/25 05:02:38;;;;;;;1.43;1.30;;;;;;;;;;5060998;28;20592;-80
2022/11/25 05:05:06;;;;;;;1.47;1.37;;;;;;;;;;5052134;28;20287;-80
2022/11/25 05:07:33;;;;;;;2.47;1.23;;;;;;;;;;5056303;28;20696;-80
2022/11/25 05:10:00;;;;;;;1.40;1.30;;;;;;;;;;5056742;28;20208;-80
2022/11/25 05:12:28;;;;;;;1.20;1.20;;;;;;;;;;5060924;28;20203;-80
2022/11/25 05:14:56;;;;;;;1.53;1.40;;;;;;;;;;5066045;28;20227;-82
2022/11/25 05:17:25;;;;;;;1.90;1.40;;;;;;;;;;5070145;28;20204;-82
2022/11/25 05:19:52;;;;;;;1.43;1.33;;;;;;;;;;5060998;28;20231;-79
2022/11/25 05:22:20;;;;;;;2.17;1.83;;;;;;;;;;5060541;28;20190;-81
2022/11/25 05:24:50;;;;;;;1.70;1.60;;;;;;;;;;5064753;28;20646;-80
2022/11/25 05:27:17;;;;;;;4.00;1.50;;;;;;;;;;5068783;28;20254;-82
2022/11/25 05:29:44;;;;;;;1.50;1.40;;;;;;;;;;5063863;28;20624;-81
2022/11/25 05:32:13;;;;;;;1.40;1.30;;;;;;;;;;5055879;28;20275;-84
2022/11/25 05:34:40;;;;;;;1.77;1.67;;;;;;;;;;5057187;28;20197;-81
2022/11/25 05:37:07;;;;;;;1.93;1.57;;;;;;;;;;5057822;28;20209;-81
2022/11/25 05:39:34;;;;;;;1.70;1.60;;;;;;;;;;5067112;28;20690;-81
2022/11/25 05:42:01;;;;;;;3.43;2.43;;;;;;;;;;5055432;28;20201;-81
2022/11/25 05:44:28;;;;;;;1.20;1.20;;;;;;;;;;5059228;28;20259;-81
2022/11/25 05:46:55;;;;;;;1.30;1.20;;;;;;;;;;5049103;28;20202;-81
2022/11/25 05:49:23;;;;;;;1.37;1.27;;;;;;;;;;5049833;28;20221;-81
2022/11/25 05:51:50;;;;;;;1.80;1.70;;;;;;;;;;5049291;28;20213;-81
2022/11/25 05:54:17;;;;;;;1.90;1.80;;;;;;;;;;5050344;28;20205;-82
2022/11/25 05:56:44;;;;;;;3.20;1.83;;;;;;;;;;5050223;28;20296;-81
2022/11/25 05:59:11;;;;;;;4.50;2.10;;;;;;;;;;5053927;28;20197;-82
2022/11/25 06:01:37;;;;;;;1.80;1.60;;;;;;;;;;5060155;28;20209;-81
2022/11/25 06:04:05;;;;;;;1.97;1.77;;;;;;;;;;5050135;28;20225;-81
2022/11/25 06:06:33;;;;;;;2.53;1.40;;;;;;;;;;5052074;28;20194;-80
2022/11/25 06:09:00;;;;;;;1.47;1.37;;;;;;;;;;5054291;28;20205;-82
2022/11/25 06:11:27;;;;;;;1.83;1.37;;;;;;;;;;5054058;28;20587;-82
2022/11/25 06:13:56;;;;;;;1.90;1.80;;;;;;;;;;5054229;28;20205;-81
2022/11/25 06:16:23;;;;;;;1.60;1.50;;;;;;;;;;5068378;28;20198;-81
2022/11/25 06:18:50;;;;;;;1.47;1.37;;;;;;;;;;5054655;28;20299;-81
2022/11/25 06:21:18;;;;;;;1.30;1.20;;;;;;;;;;5053834;28;20194;-80
2022/11/25 06:23:46;;;;;;;2.77;1.63;;;;;;;;;;5054150;28;20712;-83
2022/11/25 06:26:15;;;;;;;2.33;1.60;;;;;;;;;;5053607;28;20198;-82
2022/11/25 06:28:42;;;;;;;2.17;1.90;;;;;;;;;;5053712;28;20204;-81
2022/11/25 06:31:11;;;;;;;1.57;1.37;;;;;;;;;;5054404;28;20647;-81
2022/11/25 06:33:38;;;;;;;1.53;1.43;;;;;;;;;;5053635;28;20226;-81
2022/11/25 06:36:05;;;;;;;2.13;1.93;;;;;;;;;;5053677;28;20259;-80
2022/11/25 06:38:33;;;;;;;2.30;2.00;;;;;;;;;;5065944;28;20220;-81
2022/11/25 06:41:02;;;;;;;1.80;1.70;;;;;;;;;;5055153;28;20209;-81
2022/11/25 06:43:29;;;;;;;1.47;1.37;;;;;;;;;;5058558;28;20208;-81
2022/11/25 06:45:55;;;;;;;1.70;1.60;;;;;;;;;;5053043;28;20198;-82
2022/11/25 06:48:22;;;;;;;2.10;1.60;;;;;;;;;;5053576;28;20585;-81
2022/11/25 06:50:57;;;;;;;2.40;2.00;;;;;;;;;;5053529;28;20198;-81
2022/11/25 06:53:24;;;;;;;2.50;1.60;;;;;;;;;;5053656;28;20766;-82
2022/11/25 06:56:06;;;;;;;2.00;1.90;;;;;;;;;;5053940;28;20291;-81
2022/11/25 06:58:33;;;;;;;1.63;1.53;;;;;;;;;;5064207;28;20201;-82
2022/11/25 07:01:05;;;;;;;2.67;2.07;;;;;;;;;;5053384;28;20202;-80
2022/11/25 07:03:32;;;;;;;1.87;1.77;;;;;;;;;;5052851;28;20206;-81
2022/11/25 07:05:59;;;;;;;3.70;2.13;;;;;;;;;;5067418;28;20209;-81
2022/11/25 07:08:25;;;;;;;1.73;1.57;;;;;;;;;;5067236;28;20198;-82
2022/11/25 07:10:52;;;;;;;1.97;1.60;;;;;;;;;;5053043;28;20213;-82
2022/11/25 07:13:21;;;;;;;3.20;2.10;;;;;;;;;;5052696;28;20198;-82
2022/11/25 07:15:48;;;;;;;3.90;2.10;;;;;;;;;;5053190;28;20202;-82
2022/11/25 07:18:15;;;;;;;1.10;1.10;;;;;;;;;;5052409;28;20256;-81
2022/11/25 07:20:42;;;;;;;1.70;1.60;;;;;;;;;;5052501;28;20198;-82
2022/11/25 07:23:08;;;;;;;2.03;1.60;;;;;;;;;;5052844;28;20198;-81
2022/11/25 07:25:35;;;;;;;2.10;1.67;;;;;;;;;;5052377;28;20696;-81
2022/11/25 07:28:02;;;;;;;1.63;1.53;;;;;;;;;;5052585;28;20716;-81
2022/11/25 07:30:30;;;;;;;1.37;1.27;;;;;;;;;;5052640;28;20198;-82
2022/11/25 07:32:57;;;;;;;1.53;1.43;;;;;;;;;;5052111;28;20221;-81
2022/11/25 07:35:24;;;;;;;1.60;1.50;;;;;;;;;;5052683;28;20202;-83
2022/11/25 07:37:51;;;;;;;1.60;1.47;;;;;;;;;;5059362;28;20208;-83
2022/11/25 07:40:18;;;;;;;1.70;1.60;;;;;;;;;;5059517;28;20205;-82
2022/11/25 07:42:45;;;;;;;1.50;1.30;;;;;;;;;;5052182;28;20198;-82
2022/11/25 07:45:12;;;;;;;4.87;1.63;;;;;;;;;;5052231;28;20222;-82
2022/11/25 07:47:40;;;;;;;1.70;1.60;;;;;;;;;;5055716;28;20205;-82
2022/11/25 07:50:08;;;;;;;1.83;1.57;;;;;;;;;;5062485;28;20251;-82
2022/11/25 07:52:37;;;;;;;1.60;1.50;;;;;;;;;;5051932;28;20202;-81
2022/11/25 07:55:05;;;;;;;1.60;1.50;;;;;;;;;;5052031;28;20205;-81
2022/11/25 07:57:31;;;;;;;1.80;1.70;;;;;;;;;;5051863;28;20202;-81
2022/11/25 07:59:58;;;;;;;2.70;1.50;;;;;;;;;;5058135;28;20661;-81
2022/11/25 08:02:25;;;;;;;1.63;1.53;;;;;;;;;;5059275;28;20198;-81
2022/11/25 08:04:53;;;;;;;2.90;1.43;;;;;;;;;;5056780;28;20599;-82
2022/11/25 08:07:20;;;;;;;1.57;1.47;;;;;;;;;;5060346;28;20201;-83
2022/11/25 08:09:47;;;;;;;1.60;1.50;;;;;;;;;;5051803;28;20684;-83
2022/11/25 08:12:13;;;;;;;1.77;1.63;;;;;;;;;;5052079;28;20232;-83
2022/11/25 08:14:40;;;;;;;1.43;1.20;;;;;;;;;;5053072;28;20205;-82
2022/11/25 08:17:07;;;;;;;1.70;1.60;;;;;;;;;;5063807;28;20206;-83
2022/11/25 08:19:35;;;;;;;4.37;1.93;;;;;;;;;;5065637;28;20270;-81
2022/11/25 08:22:05;;;;;;;2.40;1.70;;;;;;;;;;5051755;28;20655;-83
2022/11/25 08:24:32;;;;;;;1.70;1.60;;;;;;;;;;5051865;28;20229;-82
2022/11/25 08:27:00;;;;;;;1.60;1.50;;;;;;;;;;5051144;28;20202;-83
2022/11/25 08:29:27;;;;;;;1.50;1.40;;;;;;;;;;5051715;28;20209;-83
2022/11/25 08:31:53;;;;;;;1.90;1.80;;;;;;;;;;5065577;28;20237;-82
2022/11/25 08:34:22;;;;;;;1.77;1.67;;;;;;;;;;5051163;28;20197;-83
2022/11/25 08:36:49;;;;;;;2.03;1.83;;;;;;;;;;5051600;28;20625;-83
2022/11/25 08:39:18;;;;;;;3.07;2.13;;;;;;;;;;5065335;28;20194;-82
2022/11/25 08:41:45;;;;;;;4.57;1.70;;;;;;;;;;5050993;28;20236;-84
2022/11/25 08:44:13;;;;;;;1.60;1.50;;;;;;;;;;5053648;28;20608;-84
2022/11/25 08:46:40;;;;;;;2.27;1.20;;;;;;;;;;5061835;28;20201;-82
2022/11/25 08:49:08;;;;;;;2.00;1.90;;;;;;;;;;5065197;28;20690;-83
2022/11/25 08:51:37;;;;;;;1.80;1.70;;;;;;;;;;5051013;28;20237;-84
2022/11/25 08:54:04;;;;;;;2.50;2.17;;;;;;;;;;5064393;28;20248;-83
2022/11/25 08:56:32;;;;;;;2.50;1.50;;;;;;;;;;5050876;28;20712;-84
2022/11/25 08:58:59;;;;;;;1.90;1.50;;;;;;;;;;5050953;28;20209;-84
2022/11/25 09:01:26;;;;;;;2.50;1.67;;;;;;;;;;5064731;28;20198;-82
2022/11/25 09:03:56;;;;;;;2.10;1.90;;;;;;;;;;5050857;28;20213;-83
2022/11/25 09:06:23;;;;;;;2.10;2.00;;;;;;;;;;5051055;28;20198;-82
2022/11/25 09:08:50;;;;;;;1.53;1.40;;;;;;;;;;5050326;28;20198;-84
2022/11/25 09:11:17;;;;;;;1.60;1.50;;;;;;;;;;5050656;28;20206;-83
2022/11/25 09:13:45;;;;;;;3.47;1.97;;;;;;;;;;5050574;28;20198;-83
2022/11/25 09:16:12;;;;;;;1.60;1.50;;;;;;;;;;5050447;28;20283;-83
2022/11/25 09:18:38;;;;;;;1.53;1.43;;;;;;;;;;5050871;28;20206;-83
2022/11/25 09:21:10;;;;;;;2.03;1.70;;;;;;;;;;5050575;28;20201;-83
2022/11/25 09:23:37;;;;;;;2.00;1.60;;;;;;;;;;5050309;28;20236;-83
2022/11/25 09:26:06;;;;;;;1.97;1.87;;;;;;;;;;5050236;28;20286;-83
2022/11/25 09:28:32;;;;;;;2.30;2.10;;;;;;;;;;5050721;28;20284;-84
2022/11/25 09:31:07;;;;;;;1.80;1.63;;;;;;;;;;5050344;28;20202;-84
2022/11/25 09:33:34;;;;;;;1.47;1.37;;;;;;;;;;5050491;28;20228;-83
2022/11/25 09:36:01;;;;;;;2.70;2.43;;;;;;;;;;5059581;28;20233;-82
2022/11/25 09:38:28;;;;;;;1.60;1.50;;;;;;;;;;5066261;28;20259;-83
2022/11/25 09:40:57;;;;;;;2.97;2.13;;;;;;;;;;5051909;28;20205;-84
2022/11/25 09:46:42;;;;;;;2.50;2.30;;;;;;;;;;5049872;28;20240;-83
2022/11/25 09:49:19;;;;;;;2.13;1.80;;;;;;;;;;5050125;28;20201;-83
2022/11/25 09:51:59;;;;;;;3.27;3.03;;;;;;;;;;5059672;28;20209;-83
2022/11/25 09:54:29;;;;;;;1.87;1.70;;;;;;;;;;5052880;28;20695;-83
2022/11/25 09:57:04;;;;;;;2.07;1.87;;;;;;;;;;5050260;28;20212;-83
2022/11/25 09:59:35;;;;;;;3.03;2.03;;;;;;;;;;5050328;28;20198;-83
2022/11/25 10:02:20;;;;;;;2.00;1.77;;;;;;;;;;5050440;28;20205;-81
2022/11/25 10:04:52;;;;;;;2.30;1.93;;;;;;;;;;5049823;28;20229;-84
2022/11/25 10:07:22;;;;;;;2.77;1.87;;;;;;;;;;5049911;28;20263;-81
2022/11/25 10:09:50;;;;;;;1.70;1.60;;;;;;;;;;5050305;28;20209;-81
2022/11/25 10:12:24;;;;;;;1.77;1.67;;;;;;;;;;5050211;28;20209;-83
2022/11/25 10:14:54;;;;;;;1.70;1.60;;;;;;;;;;5049698;28;20198;-82
2022/11/25 10:17:33;;;;;;;2.57;2.30;;;;;;;;;;5059885;28;20633;-85
2022/11/25 10:20:03;;;;;;;2.27;1.83;;;;;;;;;;5052450;28;20700;-83
2022/11/25 10:22:33;;;;;;;3.50;1.63;;;;;;;;;;5060587;28;20593;-82
2022/11/25 10:25:03;;;;;;;1.50;1.40;;;;;;;;;;5055305;28;20674;-83
2022/11/25 10:27:38;;;;;;;1.60;1.50;;;;;;;;;;5061039;28;20205;-84
2022/11/25 10:30:14;;;;;;;1.67;1.57;;;;;;;;;;5052291;28;20212;-81
2022/11/25 10:32:45;;;;;;;2.33;1.73;;;;;;;;;;5060280;28;20313;-82
2022/11/25 10:35:25;;;;;;;1.80;1.70;;;;;;;;;;5049567;28;20381;-82
2022/11/25 10:37:54;;;;;;;1.70;1.60;;;;;;;;;;5056252;28;20208;-83
2022/11/25 10:40:21;;;;;;;1.63;1.53;;;;;;;;;;5056626;28;20205;-82
2022/11/25 10:42:48;;;;;;;1.70;1.50;;;;;;;;;;5049969;28;20241;-82
2022/11/25 10:45:15;;;;;;;1.93;1.73;;;;;;;;;;5060994;28;20223;-82
2022/11/25 10:48:05;;;;;;;1.70;1.43;;;;;;;;;;5051980;28;20720;-82
2022/11/25 10:50:41;;;;;;;1.67;1.57;;;;;;;;;;5049475;28;20209;-83
2022/11/25 10:53:12;;;;;;;2.20;1.53;;;;;;;;;;5051017;28;21252;-82
2022/11/25 10:55:39;;;;;;;1.60;1.50;;;;;;;;;;5053099;28;20684;-83
2022/11/25 10:58:27;;;;;;;1.67;1.57;;;;;;;;;;5053507;28;20194;-83
2022/11/25 11:01:06;;;;;;;2.57;1.70;;;;;;;;;;5052994;28;20204;-84
2022/11/25 11:03:35;;;;;;;1.73;1.60;;;;;;;;;;5053152;28;20204;-83
2022/11/25 11:06:02;;;;;;;2.20;1.87;;;;;;;;;;5052545;28;20231;-84
2022/11/25 11:08:37;;;;;;;2.03;1.40;;;;;;;;;;5053184;28;20573;-84
2022/11/25 11:11:16;;;;;;;1.30;1.20;;;;;;;;;;5052867;28;20687;-83
2022/11/25 11:13:43;;;;;;;1.30;1.20;;;;;;;;;;5052862;28;20201;-83
2022/11/25 11:16:28;;;;;;;1.57;1.47;;;;;;;;;;5052822;28;20208;-85
2022/11/25 11:18:57;;;;;;;1.20;1.10;;;;;;;;;;5062046;28;20205;-83
2022/11/25 11:21:29;;;;;;;1.37;1.27;;;;;;;;;;5057676;28;20213;-83
2022/11/25 11:23:58;;;;;;;1.47;1.37;;;;;;;;;;5052775;28;20567;-84
2022/11/25 11:26:27;;;;;;;1.50;1.40;;;;;;;;;;5052259;28;20283;-83
2022/11/25 11:29:00;;;;;;;1.60;1.33;;;;;;;;;;5059706;28;20209;-84
2022/11/25 11:31:30;;;;;;;1.63;1.20;;;;;;;;;;5058328;28;20684;-83
2022/11/25 11:34:04;;;;;;;1.90;1.03;;;;;;;;;;5059446;28;20212;-84
2022/11/25 11:36:44;;;;;;;1.13;1.13;;;;;;;;;;5059196;28;20287;-84
2022/11/25 11:39:28;;;;;;;1.13;0.97;;;;;;;;;;5066842;28;20199;-82
2022/11/25 11:42:01;;;;;;;1.10;1.10;;;;;;;;;;5052256;28;20293;-83
2022/11/25 11:44:34;;;;;;;1.40;1.30;;;;;;;;;;5052387;28;20226;-85
2022/11/25 11:47:11;;;;;;;1.20;1.10;;;;;;;;;;5064585;28;20229;-84
2022/11/25 11:49:52;;;;;;;1.43;1.33;;;;;;;;;;5052534;28;20212;-83
2022/11/25 11:52:26;;;;;;;1.63;1.43;;;;;;;;;;5052924;28;20221;-83
2022/11/25 11:54:54;;;;;;;1.33;1.23;;;;;;;;;;5052565;28;20227;-84
2022/11/25 11:57:31;;;;;;;0.97;0.97;;;;;;;;;;5052243;28;20209;-83
2022/11/25 12:00:00;;;;;;;3.80;1.17;;;;;;;;;;5052439;28;20209;-83
2022/11/25 12:02:34;;;;;;;1.83;1.50;;;;;;;;;;5052113;28;20212;-83
2022/11/25 12:05:12;;;;;;;1.10;1.00;;;;;;;;;;5051827;28;20258;-83
2022/11/25 12:07:45;;;;;;;2.03;1.20;;;;;;;;;;5052157;28;20209;-83
2022/11/25 12:10:20;;;;;;;1.40;1.30;;;;;;;;;;5051951;28;20205;-83
2022/11/25 12:12:51;;;;;;;1.80;1.10;;;;;;;;;;5065883;28;20599;-83
2022/11/25 12:15:23;;;;;;;2.30;1.37;;;;;;;;;;5051790;28;20209;-84
2022/11/25 12:17:53;;;;;;;3.07;1.30;;;;;;;;;;5051940;28;20212;-83
2022/11/25 12:20:29;;;;;;;1.00;1.00;;;;;;;;;;5051688;28;20194;-83
2022/11/25 12:22:59;;;;;;;1.53;1.43;;;;;;;;;;5051911;28;20668;-83
2022/11/25 12:25:31;;;;;;;1.30;1.20;;;;;;;;;;5051525;28;20232;-83
2022/11/25 12:28:01;;;;;;;1.03;1.03;;;;;;;;;;5051740;28;20209;-84
2022/11/25 12:30:31;;;;;;;1.47;1.37;;;;;;;;;;5056865;28;20675;-84
2022/11/25 12:33:04;;;;;;;1.10;1.00;;;;;;;;;;5059331;28;20229;-84
2022/11/25 12:35:42;;;;;;;1.20;1.10;;;;;;;;;;5051644;28;20654;-83
2022/11/25 12:38:20;;;;;;;1.40;1.30;;;;;;;;;;5060491;28;20703;-83
2022/11/25 12:40:51;;;;;;;2.57;1.70;;;;;;;;;;5054194;28;20202;-83
2022/11/25 12:43:26;;;;;;;1.97;1.57;;;;;;;;;;5051032;28;20201;-83
2022/11/25 12:46:01;;;;;;;2.83;2.07;;;;;;;;;;5051617;28;20287;-83
2022/11/25 12:48:28;;;;;;;3.93;2.50;;;;;;;;;;5061416;28;20201;-83
2022/11/25 12:51:01;;;;;;;1.37;1.27;;;;;;;;;;5057550;28;20240;-84
2022/11/25 12:53:33;;;;;;;1.27;1.13;;;;;;;;;;5061733;28;20194;-83
2022/11/25 12:56:02;;;;;;;2.03;1.33;;;;;;;;;;5064861;28;20204;-84
2022/11/25 12:58:42;;;;;;;1.43;1.33;;;;;;;;;;5059761;28;20204;-84
2022/11/25 13:01:33;;;;;;;0.87;0.87;;;;;;;;;;5054374;28;20216;-83
2022/11/25 13:04:23;;;;;;;0.90;0.90;;;;;;;;;;5051013;28;20213;-84
2022/11/25 13:07:29;;;;;;;1.10;1.10;;;;;;;;;;5051214;28;20235;-85
2022/11/25 13:10:23;;;;;;;2.13;1.00;;;;;;;;;;5050556;28;20195;-82
2022/11/25 13:13:00;;;;;;;1.83;1.00;;;;;;;;;;5050971;28;20229;-84
2022/11/25 13:15:30;;;;;;;0.90;0.87;;;;;;;;;;5050277;28;20220;-85
2022/11/25 13:17:59;;;;;;;1.10;1.10;;;;;;;;;;5050805;28;20202;-83
2022/11/25 13:20:49;;;;;;;2.53;1.13;;;;;;;;;;5050974;28;20211;-83
2022/11/25 13:23:30;;;;;;;1.70;1.03;;;;;;;;;;5064588;28;20205;-83
2022/11/25 13:26:35;;;;;;;1.70;1.17;;;;;;;;;;5050395;28;20228;-83
2022/11/25 13:29:25;;;;;;;0.93;0.90;;;;;;;;;;5050577;28;20205;-84
2022/11/25 13:31:56;;;;;;;5.67;4.73;;;;;;;;;;5050165;28;20311;-83
2022/11/25 13:34:28;;;;;;;4.07;3.33;;;;;;;;;;5050355;28;20629;-83
2022/11/25 13:36:57;;;;;;;1.60;1.50;;;;;;;;;;5050496;28;20563;-83
2022/11/25 13:39:32;;;;;;;1.43;1.27;;;;;;;;;;5078746;28;20250;-83
2022/11/25 13:42:04;;;;;;;1.60;1.00;;;;;;;;;;5050598;28;20261;-83
2022/11/25 13:44:34;;;;;;;1.77;1.20;;;;;;;;;;5050036;28;20205;-83
2022/11/25 13:47:29;;;;;;;1.27;1.17;;;;;;;;;;5050646;28;20229;-82
2022/11/25 13:49:58;;;;;;;1.33;1.23;;;;;;;;;;5058357;28;20201;-83
2022/11/25 13:52:33;;;;;;;1.30;1.17;;;;;;;;;;5055886;28;20213;-81
2022/11/25 13:55:00;;;;;;;1.20;1.13;;;;;;;;;;5049995;28;20207;-83
2022/11/25 13:57:29;;;;;;;1.93;1.70;;;;;;;;;;5050302;28;20236;-83
2022/11/25 14:00:00;;;;;;;3.07;2.60;;;;;;;;;;5050079;28;20205;-84
2022/11/25 14:02:33;;;;;;;3.60;3.03;;;;;;;;;;5050214;28;20262;-82
2022/11/25 14:05:04;;;;;;;3.00;2.70;;;;;;;;;;5050270;28;20661;-82
2022/11/25 14:07:39;;;;;;;2.90;2.60;;;;;;;;;;5063375;28;20259;-83
2022/11/25 14:10:18;;;;;;;2.30;1.90;;;;;;;;;;5050406;28;20193;-83
2022/11/25 14:12:58;;;;;;;15.53;8.20;;;;;;;;;;5050273;28;20209;-83
2022/11/25 14:15:40;;;;;;;39.63;17.03;;;;;;;;;;5049740;28;20212;-83
2022/11/25 14:18:27;;;;;;;8.30;5.20;;;;;;;;;;5050540;28;20205;-82
2022/11/25 14:20:59;;;;;;;2.40;2.20;;;;;;;;;;5050099;28;20205;-82
2022/11/25 14:23:42;;;;;;;2.00;1.60;;;;;;;;;;5050002;28;20247;-82
2022/11/25 14:26:10;;;;;;;2.40;2.20;;;;;;;;;;5050238;28;20256;-83
2022/11/25 14:28:42;;;;;;;2.00;1.23;;;;;;;;;;5054330;28;20202;-83
2022/11/25 14:31:13;;;;;;;1.80;1.53;;;;;;;;;;5053758;28;20596;-83
2022/11/25 14:33:46;;;;;;;1.10;1.10;;;;;;;;;;5053869;28;20253;-82
2022/11/25 14:36:14;;;;;;;1.40;1.30;;;;;;;;;;5053630;28;20275;-83
2022/11/25 14:38:46;;;;;;;1.50;1.40;;;;;;;;;;5067623;28;20201;-82
2022/11/25 14:41:17;;;;;;;1.50;1.40;;;;;;;;;;5067344;28;20300;-84
2022/11/25 14:43:47;;;;;;;3.70;2.30;;;;;;;;;;5053555;28;20237;-83
2022/11/25 14:46:19;;;;;;;2.30;2.10;;;;;;;;;;5053260;28;20761;-82
2022/11/25 14:48:53;;;;;;;2.00;1.80;;;;;;;;;;5066215;28;20197;-82
2022/11/25 14:51:20;;;;;;;2.20;1.97;;;;;;;;;;5053902;28;20202;-82
2022/11/25 14:53:48;;;;;;;2.40;1.83;;;;;;;;;;5065275;28;20254;-83
2022/11/25 14:56:21;;;;;;;4.33;3.60;;;;;;;;;;5054867;28;20209;-84
2022/11/25 14:58:49;;;;;;;5.03;4.00;;;;;;;;;;5053655;28;20284;-82
2022/11/25 15:01:21;;;;;;;2.83;2.63;;;;;;;;;;5052904;28;20205;-83
2022/11/25 15:03:49;;;;;;;3.27;2.97;;;;;;;;;;5053376;28;20202;-82
2022/11/25 15:06:18;;;;;;;3.47;3.10;;;;;;;;;;5052818;28;20230;-83
2022/11/25 15:08:47;;;;;;;2.97;2.50;;;;;;;;;;5053815;28;20213;-82